Paranatinga, Brazil
Current Conditions -  °F | °C
As of 3:00 AM on Saturday 29 Nov 2014 (Local Time) from SBCY Reporting Station
Broken Clouds Broken Clouds  
Wind Chill: 75°   Ceiling: 200
Heat Index: 75°   Visibility: 6mi
Dew Point: 73°   Wind: 3mph
Humidity: 94%   Direction: 80°E
Pressure: 29.85"   Gusts: NA
Location:  14.42°S, 54.05°W
Report Text: SBCY 290600Z 08003KT 9999 BKN002 24/23 Q1011
Loading
Personal Weather Stations






























Interactive Weather Map New forecast layout! Learn more

10-Day Weather Forecast

Advertisements
Track Severe Weather on mobile